Easton, CT (06612)

10:40 PM EDT on October 22, 2014 (GMT -0400)
N Park and Sanford | Change Station
CLOSE
Current Station
Personal Weather Station
Location: Easton, CT
Elevation: 411 ft
Nearby Weather Stations

Elev 411 ft 41.28 °N, 73.28 °W | Updated 3 seconds ago

Rain
Rain
48.0 °F
Feels Like 47 °F
N
3.6
Wind Variable Wind from NNW
Gusts 8.7 mph

Today
High -- | Low -- °F
--% Chance of Precip.
Yesterday
High -- | Low -- °F
Precip. -- in
7:12 AM 6:01 PM
Waning Crescent, 1% visible
Pressure 29.71 in
Visibility 6.0 miles
Clouds Scattered Clouds 1500 ft
Mostly Cloudy 2200 ft
Overcast 5000 ft
Windchill 47 °F
Dew Point 31 °F
Humidity 52%
Rainfall 0.47 in
Snow Depth Not available.
UV 0 out of 12
Pollen .10 out of 12
Ozone Good
Flu Activity Sporadic
SPECI KBDR 230220Z 36020G30KT 6SM -RA BR SCT015 BKN022 OVC050 10/08 A2971 RMK AO2 PK WND 02030/0213 P0016 T01000083

More Conditions Fewer Conditions

Pressure 29.71 in
Visibility 6.0 miles
Clouds Scattered Clouds 1500 ft
Mostly Cloudy 2200 ft
Overcast 5000 ft
Windchill 47 °F
Dew Point 31 °F
Humidity 52%
Rainfall 0.47 in
Snow Depth Not available.
UV 0 out of 12
Pollen .10 out of 12
Ozone Good
Flu Activity Sporadic
SPECI KBDR 230220Z 36020G30KT 6SM -RA BR SCT015 BKN022 OVC050 10/08 A2971 RMK AO2 PK WND 02030/0213 P0016 T01000083

More Conditions Fewer Conditions

10-Day Weather Forecast

Almanac

Astronomy

Oct. 22, 2014 Rise Set
Actual Time 7:12 AM EDT 6:01 PM EDT
Civil Twilight 6:44 AM EDT 6:29 PM EDT
Nautical Twilight 6:12 AM EDT 7:02 PM EDT
Astronomical Twilight 5:40 AM EDT 7:34 PM EDT
Moon 5:50 AM EDT (10/22) 5:27 PM EDT (10/22)
Length of Visible Light 11h 45m
Length of Day
10h 49m
Tomorrow will be 2m 35s shorter.
Waning Crescent, 1% of the Moon is Illuminated
Today
Waning Crescent
Oct 23
New
Oct 30
First Quarter
Nov 6
Full
Nov 14
Last Quarter

Today's Extremes

State Highs State Lows

Community

WunderPhotos

Upload Photos

1,764,115 photos uploaded!

Nearby

Air Quality

  Air Quality AQ Index Pollutant
Yesterday Good
PM2.5
Yesterday Good
OZONE
Current Good
OZONE
Wednesday Good
PM2.5
Thursday Good
PM2.5

Snow Depth

Station Depth Elevation
No new snow has been reported.

Earthquake Activity

City Distance Mag. Time & Date
No recent earthquake activity has been reported nearby.
Minimum magnitude displayed is 2.5.

Coastal Water Temperatures

Place Temperature
Kings Point, NY 61.0 °F
Bridgeport, CT 62.1 °F

Nearby Weather Stations